Time;durP1;ratioP1;P1;durP2;ratioP2;P2;SDS_P1;SDS_P2;PMS_P1;PMS_P2;Temp;Humidity;BMP_temperature;BMP_pressure;BME280_temperature;BME280_humidity;BME280_pressure;Samples;Min_cycle;Max_cycle;Signal;HPM_P1;HPM_P2
2023/10/07 05:45:18;;;;;;;3.13;0.82;;;;;;;13.19;85.78;101390.91;5041097;28;20044;-68
2023/10/07 05:47:45;;;;;;;3.50;0.40;;;;;;;13.19;85.86;101390.06;5046028;28;20037;-68
2023/10/07 05:50:12;;;;;;;1.15;0.30;;;;;;;13.19;85.54;101390.91;5043790;28;20120;-69
2023/10/07 05:52:39;;;;;;;1.73;0.30;;;;;;;13.23;85.63;101388.84;5043427;28;20060;-68
2023/10/07 05:55:06;;;;;;;2.13;0.50;;;;;;;13.27;85.39;101400.66;5046995;28;20104;-69
2023/10/07 05:57:33;;;;;;;1.10;0.20;;;;;;;13.31;85.31;101393.34;5040078;28;20037;-68
2023/10/07 05:59:59;;;;;;;1.92;0.50;;;;;;;13.28;85.16;101399.69;5045818;28;20047;-68
2023/10/07 06:02:25;;;;;;;0.90;0.30;;;;;;;13.32;85.10;101405.47;5044800;28;20094;-68
2023/10/07 06:04:51;;;;;;;2.47;0.40;;;;;;;13.35;85.23;101403.41;5048048;28;20401;-68
2023/10/07 06:07:20;;;;;;;2.22;0.40;;;;;;;13.37;84.78;101411.13;5048607;28;20025;-68
2023/10/07 06:09:47;;;;;;;2.42;0.80;;;;;;;13.37;85.04;101405.88;5045814;28;20032;-68
2023/10/07 06:12:15;;;;;;;0.70;0.20;;;;;;;13.40;84.61;101408.22;5043956;28;20029;-68
2023/10/07 06:14:42;;;;;;;1.30;0.40;;;;;;;13.42;84.79;101417.59;5045968;28;20041;-68
2023/10/07 06:17:07;;;;;;;1.83;0.35;;;;;;;13.44;84.70;101415.66;5049235;28;20108;-69
2023/10/07 06:19:40;;;;;;;1.05;0.43;;;;;;;13.43;84.77;101413.19;5047863;28;20441;-69
2023/10/07 06:22:11;;;;;;;3.28;0.35;;;;;;;13.49;84.57;101413.44;5040049;28;20028;-68
2023/10/07 06:24:41;;;;;;;2.30;0.30;;;;;;;13.55;84.42;101412.06;5042654;28;20087;-68
2023/10/07 06:27:13;;;;;;;2.17;0.60;;;;;;;13.63;83.72;101420.03;5049536;28;20028;-68
2023/10/07 06:29:43;;;;;;;2.10;0.40;;;;;;;13.72;83.62;101420.97;5041934;28;20488;-68
2023/10/07 06:32:22;;;;;;;5.40;0.40;;;;;;;13.79;83.10;101419.44;5049883;28;20033;-69
2023/10/07 06:34:48;;;;;;;4.80;0.40;;;;;;;13.81;82.70;101418.31;5043769;28;20036;-68
2023/10/07 06:37:14;;;;;;;0.85;0.30;;;;;;;13.89;82.76;101433.31;5048590;28;20116;-68
2023/10/07 06:39:40;;;;;;;1.10;0.30;;;;;;;13.93;82.51;101438.16;5045559;28;20128;-69
2023/10/07 06:42:06;;;;;;;2.22;0.65;;;;;;;13.95;82.31;101444.06;5040796;28;20020;-69
2023/10/07 06:44:32;;;;;;;1.50;0.20;;;;;;;13.98;82.30;101442.13;5046802;28;20036;-68
2023/10/07 06:47:02;;;;;;;4.32;0.35;;;;;;;14.00;82.43;101441.03;5045539;28;20044;-69
2023/10/07 06:49:34;;;;;;;3.97;0.32;;;;;;;14.02;82.78;101444.31;5046537;28;20029;-68
2023/10/07 06:52:03;;;;;;;2.03;0.20;;;;;;;14.05;82.22;101446.66;5047287;28;20040;-68
2023/10/07 06:54:34;;;;;;;2.72;0.30;;;;;;;14.10;81.98;101448.84;5047958;28;20053;-68
2023/10/07 06:57:04;;;;;;;1.23;0.20;;;;;;;14.19;81.49;101448.78;5032798;28;20045;-68
2023/10/07 06:59:30;;;;;;;1.38;0.30;;;;;;;14.29;80.83;101448.75;5044935;28;20047;-68
2023/10/07 07:01:56;;;;;;;2.17;0.30;;;;;;;14.47;80.20;101446.22;5040960;28;20024;-68
2023/10/07 07:04:23;;;;;;;2.55;0.20;;;;;;;14.60;79.60;101457.22;5041307;28;20190;-70
2023/10/07 07:07:09;;;;;;;1.88;0.38;;;;;;;14.60;79.57;101450.16;5043460;28;20025;-68
2023/10/07 07:09:42;;;;;;;2.17;0.50;;;;;;;14.58;79.82;101454.75;5043077;28;20020;-68
2023/10/07 07:12:09;;;;;;;1.48;0.30;;;;;;;14.57;80.12;101457.50;5039650;28;20033;-68
2023/10/07 07:14:42;;;;;;;1.27;0.30;;;;;;;14.58;80.44;101459.97;5047202;28;20135;-68
2023/10/07 07:22:45;;;;;;;1.00;0.30;;;;;;;14.85;79.40;101471.41;5040932;28;20279;-69
2023/10/07 07:25:29;;;;;;;2.45;0.40;;;;;;;14.91;79.19;101462.94;5047085;28;20032;-69
2023/10/07 07:27:58;;;;;;;1.90;0.30;;;;;;;14.98;78.76;101471.88;5041545;28;20033;-68
2023/10/07 07:30:30;;;;;;;1.95;0.40;;;;;;;15.04;78.78;101468.66;5043817;28;20025;-69
2023/10/07 07:32:59;;;;;;;0.77;0.20;;;;;;;15.16;78.38;101472.69;5042888;28;20036;-69
2023/10/07 07:35:43;;;;;;;1.77;0.40;;;;;;;15.26;78.40;101468.19;5041585;28;20087;-69
2023/10/07 07:40:56;;;;;;;1.55;0.32;;;;;;;15.41;77.91;101478.16;5047425;28;20044;-68
2023/10/07 07:43:25;;;;;;;1.42;0.35;;;;;;;15.45;77.80;101475.09;5048481;28;20021;-69
2023/10/07 07:46:08;;;;;;;1.42;0.30;;;;;;;15.54;77.35;101466.31;5048018;28;20041;-68
2023/10/07 07:48:36;;;;;;;2.05;0.50;;;;;;;15.62;77.33;101470.81;5047832;28;20033;-69
2023/10/07 07:51:02;;;;;;;1.52;0.50;;;;;;;15.79;76.48;101469.13;5043491;28;20071;-69
2023/10/07 07:53:30;;;;;;;3.63;0.38;;;;;;;15.91;76.56;101470.53;5044305;28;20056;-69
2023/10/07 07:55:58;;;;;;;2.58;0.30;;;;;;;15.99;75.78;101473.22;5048148;28;20396;-68
2023/10/07 07:58:24;;;;;;;1.42;0.30;;;;;;;16.09;75.36;101476.53;5046810;28;20211;-69
2023/10/07 08:00:58;;;;;;;1.58;0.22;;;;;;;16.23;75.41;101473.31;5048008;28;20048;-69
2023/10/07 08:03:25;;;;;;;1.00;0.30;;;;;;;16.34;75.22;101474.03;5047695;28;20520;-69
2023/10/07 08:05:50;;;;;;;3.17;0.30;;;;;;;16.40;74.59;101470.78;5047980;28;20024;-68
2023/10/07 08:08:25;;;;;;;2.78;0.38;;;;;;;16.47;74.60;101474.44;5041646;28;20102;-69
2023/10/07 08:10:54;;;;;;;0.97;0.20;;;;;;;16.52;74.02;101464.25;5043088;28;20029;-69
2023/10/07 08:13:23;;;;;;;0.80;0.40;;;;;;;16.66;73.70;101463.66;5046808;28;20388;-69
2023/10/07 08:15:51;;;;;;;1.77;0.20;;;;;;;16.78;73.54;101470.28;5048125;28;20029;-68
2023/10/07 08:18:22;;;;;;;2.30;0.30;;;;;;;16.88;73.34;101473.59;5042018;28;20056;-69
2023/10/07 08:20:53;;;;;;;1.25;0.20;;;;;;;16.96;73.20;101467.53;5044653;28;20029;-68
2023/10/07 08:23:24;;;;;;;4.03;0.40;;;;;;;17.03;72.99;101479.03;5042488;28;20135;-69
2023/10/07 08:25:55;;;;;;;1.02;0.30;;;;;;;17.17;72.66;101475.78;5044483;28;20032;-69
2023/10/07 08:28:38;;;;;;;1.95;0.50;;;;;;;17.23;71.81;101476.94;5042093;28;20029;-69
2023/10/07 08:31:13;;;;;;;1.20;0.30;;;;;;;17.32;72.13;101478.59;5047128;28;20120;-69
2023/10/07 08:33:40;;;;;;;4.88;0.40;;;;;;;17.41;72.55;101480.25;5048265;28;20391;-68
2023/10/07 08:36:07;;;;;;;0.82;0.20;;;;;;;17.37;71.94;101471.03;5048048;28;20048;-68
2023/10/07 08:38:50;;;;;;;0.47;0.17;;;;;;;17.44;72.16;101474.66;5046375;28;20132;-69
2023/10/07 08:41:18;;;;;;;1.08;0.20;;;;;;;17.50;71.95;101473.13;5047320;28;20112;-69
2023/10/07 08:43:45;;;;;;;1.20;0.30;;;;;;;17.64;71.61;101466.38;5048344;28;20025;-69
2023/10/07 08:46:19;;;;;;;5.00;0.40;;;;;;;17.74;71.78;101472.34;5047803;28;20377;-68
2023/10/07 08:48:56;;;;;;;1.38;0.20;;;;;;;17.87;70.11;101470.03;5042700;28;20025;-68
2023/10/07 08:51:24;;;;;;;1.52;0.30;;;;;;;17.96;71.10;101476.91;5046187;28;20029;-69
2023/10/07 08:53:51;;;;;;;1.45;0.30;;;;;;;18.02;70.69;101473.59;5046192;28;20494;-68
2023/10/07 08:56:20;;;;;;;1.27;0.20;;;;;;;18.12;69.90;101471.59;5047629;28;20033;-68
2023/10/07 08:58:49;;;;;;;0.95;0.35;;;;;;;18.22;70.02;101476.69;5040145;28;20502;-68
2023/10/07 09:01:17;;;;;;;1.65;0.25;;;;;;;18.24;69.41;101475.50;5048988;28;20068;-68
2023/10/07 09:03:50;;;;;;;1.67;0.32;;;;;;;18.29;69.44;101471.53;5039714;28;20494;-68
2023/10/07 09:06:16;;;;;;;3.53;0.35;;;;;;;18.30;69.68;101463.47;5040854;28;20083;-69
2023/10/07 09:08:43;;;;;;;1.13;0.28;;;;;;;18.33;68.72;101472.84;5044976;28;20025;-69
2023/10/07 09:11:12;;;;;;;0.98;0.20;;;;;;;18.42;68.60;101471.84;5043040;28;20029;-68
2023/10/07 09:13:39;;;;;;;1.10;0.30;;;;;;;18.49;68.47;101467.50;5047363;28;20400;-69
2023/10/07 09:16:10;;;;;;;2.33;0.25;;;;;;;18.47;68.78;101472.13;5048393;28;20033;-68
2023/10/07 09:18:40;;;;;;;0.85;0.30;;;;;;;18.38;69.60;101473.16;5041486;28;20128;-69
2023/10/07 09:21:11;;;;;;;4.13;0.30;;;;;;;18.42;69.46;101477.13;5043926;28;20067;-69
2023/10/07 09:23:47;;;;;;;1.67;0.30;;;;;;;18.39;69.77;101478.28;5045289;28;20025;-69
2023/10/07 09:26:21;;;;;;;3.35;0.50;;;;;;;18.58;68.94;101483.13;5041720;28;20507;-69
2023/10/07 09:28:51;;;;;;;1.77;0.30;;;;;;;18.88;67.66;101486.81;5048742;28;20029;-69
2023/10/07 09:31:19;;;;;;;1.73;0.25;;;;;;;18.92;67.70;101481.16;5047957;28;20037;-73
2023/10/07 09:33:49;;;;;;;1.67;0.30;;;;;;;19.05;66.17;101476.94;5043995;28;20041;-73
2023/10/07 09:39:04;;;;;;;2.47;0.28;;;;;;;18.89;68.03;101469.97;5045164;28;20032;-73
2023/10/07 09:41:32;;;;;;;3.35;0.30;;;;;;;19.18;66.06;101468.44;5050214;28;20033;-73
2023/10/07 09:44:00;;;;;;;3.35;0.60;;;;;;;19.25;66.89;101463.28;5047859;28;20469;-73
2023/10/07 09:46:25;;;;;;;4.20;0.20;;;;;;;19.28;66.90;101457.63;5049405;28;20049;-73
2023/10/07 09:48:57;;;;;;;3.30;0.40;;;;;;;19.21;66.76;101468.09;5049362;28;20035;-74
2023/10/07 09:51:47;;;;;;;3.20;0.20;;;;;;;19.12;67.85;101463.84;5050156;28;20059;-73
2023/10/07 09:54:37;;;;;;;2.45;0.38;;;;;;;19.15;64.74;101463.50;5046894;28;20408;-73
2023/10/07 09:57:22;;;;;;;1.20;0.30;;;;;;;19.21;67.12;101452.25;5044947;28;20045;-73
2023/10/07 09:59:51;;;;;;;3.17;0.43;;;;;;;19.13;67.39;101454.94;5043992;28;20112;-73
2023/10/07 10:02:31;;;;;;;2.53;0.38;;;;;;;19.08;66.12;101454.63;5050282;28;20033;-73
2023/10/07 10:05:24;;;;;;;1.58;0.20;;;;;;;19.18;63.25;101447.31;5040383;28;20116;-73
2023/10/07 10:08:27;;;;;;;1.23;0.30;;;;;;;19.52;58.89;101442.41;5044553;28;20128;-73
2023/10/07 10:10:58;;;;;;;1.77;0.30;;;;;;;19.54;63.69;101447.50;5043904;28;20488;-73
2023/10/07 10:16:13;;;;;;;2.08;0.40;;;;;;;19.33;64.63;101452.66;5046375;28;21333;-73
2023/10/07 10:18:45;;;;;;;2.15;0.40;;;;;;;19.33;65.83;101448.19;5048269;28;20554;-73
2023/10/07 10:21:12;;;;;;;1.02;0.35;;;;;;;19.44;65.64;101452.19;5047625;28;20496;-72
2023/10/07 10:23:40;;;;;;;1.15;0.28;;;;;;;19.41;66.39;101444.63;5050248;28;20072;-73
2023/10/07 10:26:20;;;;;;;1.38;0.30;;;;;;;19.37;66.32;101435.44;5043661;28;20045;-73
2023/10/07 10:29:00;;;;;;;0.98;0.20;;;;;;;19.39;65.69;101447.44;5046862;28;20036;-73
2023/10/07 10:31:40;;;;;;;1.17;0.20;;;;;;;19.38;66.52;101444.97;5047653;28;20036;-73
2023/10/07 10:34:06;;;;;;;0.95;0.22;;;;;;;19.41;66.25;101439.34;5049433;28;20037;-73
2023/10/07 10:36:38;;;;;;;0.90;0.20;;;;;;;19.46;64.94;101437.81;5044655;28;20546;-73
2023/10/07 10:39:12;;;;;;;1.45;0.40;;;;;;;19.62;65.31;101423.66;5049705;28;20392;-73
2023/10/07 10:41:39;;;;;;;1.98;0.32;;;;;;;19.62;65.10;101426.28;5050167;28;20120;-73
2023/10/07 10:44:11;;;;;;;1.30;0.30;;;;;;;19.55;65.61;101417.44;5049808;28;20451;-70
2023/10/07 10:46:45;;;;;;;2.47;0.82;;;;;;;19.54;65.62;101421.91;5047396;28;20052;-69
2023/10/07 10:49:16;;;;;;;0.60;0.20;;;;;;;19.54;66.14;101416.63;5048635;28;20029;-69
2023/10/07 10:51:45;;;;;;;2.05;0.40;;;;;;;19.66;65.39;101413.53;5048893;28;20037;-69
2023/10/07 10:54:22;;;;;;;1.35;0.40;;;;;;;19.83;63.71;101415.84;5049052;28;20453;-69
2023/10/07 10:56:48;;;;;;;0.82;0.20;;;;;;;19.91;64.34;101408.78;5043498;28;20059;-69
2023/10/07 10:59:15;;;;;;;1.10;0.40;;;;;;;19.96;64.29;101409.06;5049946;28;20413;-70
2023/10/07 11:01:44;;;;;;;1.98;0.38;;;;;;;20.04;63.35;101412.44;5047907;28;20048;-69
2023/10/07 11:04:13;;;;;;;0.93;0.20;;;;;;;20.23;62.11;101404.97;5039475;28;20046;-70
2023/10/07 11:06:41;;;;;;;1.05;0.20;;;;;;;20.38;61.04;101401.28;5048181;28;20114;-70
2023/10/07 11:09:09;;;;;;;1.52;0.30;;;;;;;20.34;60.49;101407.09;5049913;28;20029;-70
2023/10/07 11:11:35;;;;;;;0.85;0.25;;;;;;;20.22;62.31;101401.50;5048505;28;20051;-70
2023/10/07 11:14:09;;;;;;;1.70;0.50;;;;;;;20.24;61.73;101401.31;5049631;28;20468;-69
2023/10/07 11:16:49;;;;;;;1.02;0.38;;;;;;;20.20;60.89;101396.38;5047802;28;20039;-70
2023/10/07 11:19:15;;;;;;;3.28;0.30;;;;;;;20.20;62.78;101396.38;5042957;28;20036;-70
2023/10/07 11:21:44;;;;;;;1.67;0.20;;;;;;;20.25;60.40;101379.94;5048738;28;20143;-70
2023/10/07 11:24:14;;;;;;;2.80;0.30;;;;;;;20.72;60.35;101373.34;5049578;28;20028;-69
2023/10/07 11:26:42;;;;;;;0.93;0.30;;;;;;;20.79;60.90;101375.06;5045683;28;20044;-70
2023/10/07 11:29:13;;;;;;;2.20;0.20;;;;;;;20.59;61.80;101362.63;5047367;28;20091;-70
2023/10/07 11:31:40;;;;;;;1.33;0.30;;;;;;;20.44;62.07;101360.84;5045348;28;20029;-70
2023/10/07 11:34:08;;;;;;;0.57;0.20;;;;;;;20.44;61.40;101357.38;5047098;28;20032;-70
2023/10/07 11:36:47;;;;;;;1.40;0.30;;;;;;;20.44;60.53;101358.19;5046974;28;20029;-70
2023/10/07 11:39:15;;;;;;;0.85;0.13;;;;;;;20.45;60.56;101357.19;5046157;28;20041;-69
2023/10/07 11:41:44;;;;;;;2.08;0.50;;;;;;;20.74;61.67;101353.63;5048714;28;20083;-70
2023/10/07 11:44:16;;;;;;;2.22;0.30;;;;;;;20.66;59.43;101359.03;5048199;28;20049;-69
2023/10/07 11:46:43;;;;;;;2.45;0.30;;;;;;;21.06;58.76;101348.78;5046542;28;20040;-70
2023/10/07 11:49:09;;;;;;;1.10;0.30;;;;;;;21.04;59.93;101356.09;5044461;28;20480;-69
2023/10/07 11:51:34;;;;;;;1.08;0.30;;;;;;;20.80;61.23;101349.38;5044869;28;20032;-70
2023/10/07 11:54:00;;;;;;;2.28;0.38;;;;;;;20.75;61.05;101347.31;5047299;28;20166;-70
2023/10/07 11:56:27;;;;;;;1.35;0.30;;;;;;;20.74;61.21;101350.97;5046107;28;20045;-69
2023/10/07 11:58:53;;;;;;;1.40;0.30;;;;;;;20.65;62.19;101353.94;5044516;28;20083;-70
2023/10/07 12:01:20;;;;;;;2.50;0.30;;;;;;;20.63;62.11;101350.66;5048138;28;20037;-69
2023/10/07 12:03:46;;;;;;;1.25;0.52;;;;;;;20.64;61.37;101345.16;5042889;28;20029;-69
2023/10/07 12:06:12;;;;;;;1.27;0.30;;;;;;;20.72;61.25;101347.69;5046847;28;20126;-69
2023/10/07 12:08:38;;;;;;;1.80;0.30;;;;;;;20.74;61.44;101348.31;5043657;28;20100;-70
2023/10/07 12:11:05;;;;;;;2.42;0.22;;;;;;;20.72;61.78;101347.69;5052892;28;20039;-72
2023/10/07 12:13:31;;;;;;;0.95;0.30;;;;;;;20.64;61.53;101339.06;5038188;28;20115;-72
2023/10/07 12:15:57;;;;;;;2.08;0.35;;;;;;;20.64;61.89;101336.41;5043303;28;20108;-72
2023/10/07 12:18:22;;;;;;;1.42;0.25;;;;;;;20.70;61.78;101344.41;5044552;28;20117;-72
2023/10/07 12:20:50;;;;;;;2.65;0.40;;;;;;;20.71;62.45;101330.16;5040037;28;20083;-72
2023/10/07 12:23:15;;;;;;;2.42;0.40;;;;;;;20.80;61.95;101339.59;5048274;28;20037;-72
2023/10/07 12:25:41;;;;;;;1.00;0.28;;;;;;;20.83;61.51;101328.63;5046901;28;20491;-72
2023/10/07 12:28:08;;;;;;;1.08;0.30;;;;;;;20.92;61.55;101325.84;5039517;28;20120;-72
2023/10/07 12:30:34;;;;;;;2.63;0.30;;;;;;;20.91;62.23;101332.16;5044451;28;20037;-72
2023/10/07 12:33:00;;;;;;;1.20;0.20;;;;;;;20.86;61.92;101327.41;5037420;28;20342;-72
2023/10/07 12:35:30;;;;;;;0.77;0.22;;;;;;;20.85;61.65;101323.13;5041289;28;20090;-72
2023/10/07 12:37:58;;;;;;;2.25;0.30;;;;;;;20.81;61.86;101325.34;5044134;28;20051;-72
2023/10/07 12:40:28;;;;;;;0.88;0.20;;;;;;;20.85;60.82;101325.78;5040857;28;20061;-72
2023/10/07 12:42:56;;;;;;;2.53;0.30;;;;;;;20.96;60.24;101319.16;5030221;28;20037;-72
2023/10/07 12:45:23;;;;;;;1.10;0.20;;;;;;;21.26;59.64;101317.19;5032124;28;20031;-72
2023/10/07 12:47:51;;;;;;;1.15;0.20;;;;;;;21.16;60.73;101322.78;5042329;28;20103;-72
2023/10/07 12:50:30;;;;;;;1.33;0.30;;;;;;;21.02;60.86;101321.84;5040311;28;20030;-72
2023/10/07 12:52:59;;;;;;;1.20;0.20;;;;;;;20.96;60.52;101316.50;5041665;28;20542;-72
2023/10/07 12:55:32;;;;;;;1.35;0.20;;;;;;;20.93;59.55;101314.22;5044360;28;20041;-72
2023/10/07 12:58:05;;;;;;;1.55;0.40;;;;;;;21.04;60.22;101311.06;5042743;28;20066;-72
2023/10/07 13:00:33;;;;;;;1.05;0.30;;;;;;;21.00;60.56;101309.81;5038988;28;20034;-72
2023/10/07 13:03:02;;;;;;;1.10;0.30;;;;;;;20.93;60.88;101304.47;5049579;28;20041;-72
2023/10/07 13:05:32;;;;;;;1.40;0.40;;;;;;;20.90;61.12;101306.66;5049003;28;20029;-72
2023/10/07 13:07:59;;;;;;;2.08;0.38;;;;;;;20.92;60.98;101305.47;5054486;28;20047;-72
2023/10/07 13:10:26;;;;;;;1.60;0.43;;;;;;;20.88;61.06;101299.75;5045121;28;20037;-72
2023/10/07 13:12:55;;;;;;;1.80;0.20;;;;;;;20.85;61.11;101300.13;5048159;28;20051;-72
2023/10/07 13:15:28;;;;;;;1.42;0.20;;;;;;;20.80;61.07;101294.56;5045405;28;20035;-72
2023/10/07 13:17:54;;;;;;;0.80;0.20;;;;;;;20.76;60.89;101296.00;5040552;28;20521;-72
2023/10/07 13:20:20;;;;;;;1.42;0.30;;;;;;;20.73;61.36;101306.97;5046503;28;20124;-72
2023/10/07 13:22:55;;;;;;;2.03;0.40;;;;;;;20.79;61.11;101308.84;5045819;28;20496;-72
2023/10/07 13:25:21;;;;;;;0.73;0.25;;;;;;;20.86;60.57;101307.06;5040389;28;20029;-72
2023/10/07 13:27:50;;;;;;;0.82;0.20;;;;;;;20.95;60.69;101298.97;5052508;28;20037;-72
2023/10/07 13:30:17;;;;;;;1.48;0.25;;;;;;;20.98;60.44;101298.59;5042905;28;20384;-72
2023/10/07 13:32:46;;;;;;;0.80;0.28;;;;;;;20.94;60.23;101294.69;5053204;28;20116;-72
2023/10/07 13:35:15;;;;;;;2.72;0.40;;;;;;;20.86;60.79;101296.47;5044063;28;20043;-72
2023/10/07 13:37:44;;;;;;;1.05;0.20;;;;;;;20.96;60.22;101290.84;5047700;28;20040;-72
2023/10/07 13:40:17;;;;;;;1.90;0.25;;;;;;;21.04;60.38;101292.53;5052400;28;21843;-72
2023/10/07 13:42:50;;;;;;;1.30;0.40;;;;;;;21.07;58.79;101289.50;5043075;28;20388;-73
2023/10/07 13:45:28;;;;;;;5.13;0.40;;;;;;;21.08;58.73;101288.47;5046458;28;20370;-72
2023/10/07 13:47:55;;;;;;;0.88;0.20;;;;;;;21.07;58.71;101292.97;5045070;28;20037;-72
2023/10/07 13:50:25;;;;;;;3.70;0.40;;;;;;;21.24;59.50;101282.09;5047753;28;20789;-72
2023/10/07 13:52:59;;;;;;;0.60;0.20;;;;;;;21.23;58.61;101288.41;5043423;28;20064;-72
2023/10/07 13:58:07;;;;;;;2.35;0.40;;;;;;;21.06;59.72;101285.19;5049346;28;20052;-72
2023/10/07 14:03:06;;;;;;;2.50;0.30;;;;;;;21.14;59.69;101275.28;5047054;28;20053;-72
2023/10/07 14:05:36;;;;;;;1.40;0.40;;;;;;;21.09;60.00;101288.28;5051966;28;20041;-72
2023/10/07 14:08:10;;;;;;;0.50;0.20;;;;;;;21.05;60.58;101288.88;5047096;28;20540;-72
2023/10/07 14:10:37;;;;;;;1.60;0.30;;;;;;;21.12;60.14;101284.44;5034219;28;20029;-72
2023/10/07 14:13:03;;;;;;;1.33;0.40;;;;;;;21.11;60.78;101286.25;5046809;28;20052;-72
2023/10/07 14:15:33;;;;;;;0.90;0.35;;;;;;;21.17;60.02;101282.84;5044174;28;20067;-72
2023/10/07 14:18:01;;;;;;;1.10;0.25;;;;;;;21.22;58.91;101287.59;5036367;28;20063;-72
2023/10/07 14:20:29;;;;;;;1.08;0.30;;;;;;;21.23;59.53;101281.28;5040389;28;20040;-72
2023/10/07 14:22:56;;;;;;;0.95;0.20;;;;;;;21.22;59.42;101284.94;5054588;28;20415;-72
2023/10/07 14:25:24;;;;;;;1.38;0.28;;;;;;;21.19;59.98;101283.47;5042784;28;20036;-72
2023/10/07 14:27:53;;;;;;;1.00;0.30;;;;;;;21.15;59.57;101284.88;5040378;28;20029;-72
2023/10/07 14:30:22;;;;;;;1.50;0.30;;;;;;;21.20;58.35;101285.09;5054592;28;20133;-72
2023/10/07 14:32:49;;;;;;;2.13;0.40;;;;;;;21.26;59.22;101285.38;5050463;28;20051;-72
2023/10/07 14:35:15;;;;;;;4.07;0.30;;;;;;;21.26;58.67;101283.53;5051289;28;20094;-72
2023/10/07 14:37:42;;;;;;;0.98;0.22;;;;;;;21.24;58.64;101282.09;5050028;28;20037;-72
2023/10/07 14:40:10;;;;;;;2.08;0.20;;;;;;;21.15;58.90;101278.75;5048336;28;20035;-72
2023/10/07 14:42:36;;;;;;;1.17;0.40;;;;;;;21.18;59.17;101279.19;5041106;28;20029;-72
2023/10/07 14:45:02;;;;;;;3.15;0.25;;;;;;;21.18;59.05;101279.19;5061123;28;20468;-72
2023/10/07 14:47:28;;;;;;;1.55;0.22;;;;;;;21.13;59.25;101286.06;5054352;28;20040;-72
2023/10/07 14:49:54;;;;;;;1.17;0.40;;;;;;;21.14;59.38;101277.09;5047667;28;20434;-72
2023/10/07 14:52:20;;;;;;;1.65;0.30;;;;;;;21.06;59.92;101287.84;5053748;28;20036;-72
2023/10/07 14:54:46;;;;;;;1.55;0.40;;;;;;;20.96;59.50;101280.25;5046613;28;20532;-72
2023/10/07 14:57:13;;;;;;;1.15;0.38;;;;;;;20.99;60.02;101273.75;5045027;28;20029;-72
2023/10/07 14:59:39;;;;;;;0.85;0.20;;;;;;;20.98;60.30;101272.09;5040292;28;20024;-71
2023/10/07 15:02:05;;;;;;;1.25;0.20;;;;;;;20.96;60.70;101274.13;5046305;28;20465;-72
2023/10/07 15:04:31;;;;;;;1.20;0.38;;;;;;;20.87;61.78;101266.31;5046116;28;20359;-72
2023/10/07 15:06:56;;;;;;;1.27;0.40;;;;;;;20.80;61.98;101269.91;5054909;28;20226;-71
2023/10/07 15:09:22;;;;;;;1.95;0.40;;;;;;;20.73;62.87;101261.94;5042677;28;20473;-72
2023/10/07 15:11:49;;;;;;;1.73;0.40;;;;;;;20.63;63.25;101263.28;5045647;28;20052;-75
2023/10/07 15:14:15;;;;;;;1.35;0.40;;;;;;;20.53;64.53;101253.84;5045120;28;20025;-72
2023/10/07 15:16:42;;;;;;;1.30;0.30;;;;;;;20.50;64.55;101253.38;5052438;28;20040;-72
2023/10/07 15:19:08;;;;;;;0.82;0.30;;;;;;;20.51;64.76;101276.22;5051749;28;20079;-72
2023/10/07 15:21:35;;;;;;;3.08;0.30;;;;;;;20.53;65.01;101274.19;5052193;28;20028;-72
2023/10/07 15:24:00;;;;;;;3.33;0.40;;;;;;;20.58;64.82;101273.63;5048922;28;20031;-72
2023/10/07 15:26:26;;;;;;;3.35;0.30;;;;;;;20.51;65.22;101277.03;5040345;28;20045;-74
2023/10/07 15:28:51;;;;;;;2.28;0.30;;;;;;;20.42;66.14;101283.44;5046277;28;20017;-72
2023/10/07 15:31:25;;;;;;;1.05;0.30;;;;;;;20.42;66.17;101287.94;5048209;28;20087;-72
2023/10/07 15:34:07;;;;;;;1.10;0.30;;;;;;;20.36;67.35;101293.94;5040559;28;20496;-72
2023/10/07 15:36:37;;;;;;;1.52;0.38;;;;;;;20.30;66.95;101297.38;5046594;28;20048;-70
2023/10/07 15:39:04;;;;;;;0.95;0.30;;;;;;;20.24;66.88;101290.19;5045672;28;20029;-73
2023/10/07 15:41:29;;;;;;;1.92;0.40;;;;;;;20.21;67.54;101297.47;5045703;28;20037;-75
2023/10/07 15:43:55;;;;;;;1.02;0.30;;;;;;;20.18;67.30;101292.56;5045153;28;20033;-75
2023/10/07 15:46:21;;;;;;;2.95;0.38;;;;;;;20.12;67.59;101288.00;5043395;28;20055;-72
2023/10/07 15:48:47;;;;;;;2.00;0.57;;;;;;;20.05;68.05;101288.94;5046539;28;20063;-72
2023/10/07 15:51:13;;;;;;;1.88;0.30;;;;;;;20.00;68.20;101296.63;5048799;28;20088;-72
2023/10/07 15:53:42;;;;;;;4.15;0.47;;;;;;;19.95;68.68;101299.81;5045367;28;20404;-72
2023/10/07 15:56:09;;;;;;;4.00;0.75;;;;;;;19.87;68.99;101300.72;5048930;28;20040;-72
2023/10/07 15:58:37;;;;;;;1.23;0.30;;;;;;;19.80;69.26;101304.31;5048441;28;20037;-72
2023/10/07 16:01:04;;;;;;;2.15;0.50;;;;;;;19.71;69.88;101314.19;5044659;28;20029;-73
2023/10/07 16:03:33;;;;;;;2.25;0.30;;;;;;;19.60;70.29;101309.34;5046428;28;20047;-72
2023/10/07 16:06:03;;;;;;;3.10;0.60;;;;;;;19.51;70.77;101308.63;5048955;28;20021;-72
2023/10/07 16:08:33;;;;;;;1.40;0.30;;;;;;;19.52;71.16;101312.91;5048324;28;20103;-72
2023/10/07 16:11:01;;;;;;;1.67;0.28;;;;;;;19.58;70.53;101305.25;5049076;28;20033;-72
2023/10/07 16:13:30;;;;;;;2.75;0.65;;;;;;;19.52;71.13;101306.78;5044915;28;20040;-72
2023/10/07 16:16:08;;;;;;;1.80;0.65;;;;;;;19.37;72.71;101309.44;5048989;28;20416;-72
2023/10/07 16:18:38;;;;;;;0.88;0.25;;;;;;;19.20;73.03;101311.41;5046850;28;20025;-72
2023/10/07 16:21:18;;;;;;;1.58;0.30;;;;;;;19.01;74.20;101308.44;5048807;28;20480;-72
2023/10/07 16:23:44;;;;;;;1.70;0.30;;;;;;;18.88;73.93;101306.44;5047830;28;20028;-72
2023/10/07 16:26:13;;;;;;;3.20;0.47;;;;;;;18.79;74.82;101323.34;5045115;28;20025;-71
2023/10/07 16:28:40;;;;;;;1.83;0.40;;;;;;;18.66;75.44;101316.00;5047408;28;20053;-72
2023/10/07 16:31:06;;;;;;;1.17;0.30;;;;;;;18.55;76.28;101316.38;5050427;28;20063;-72
2023/10/07 16:33:33;;;;;;;2.00;0.43;;;;;;;18.45;76.44;101311.34;5051273;28;20029;-72
2023/10/07 16:36:09;;;;;;;3.03;0.30;;;;;;;18.33;77.11;101312.75;5052436;28;20151;-72
2023/10/07 16:38:37;;;;;;;1.80;0.30;;;;;;;18.22;76.97;101303.41;5050658;28;20492;-72
2023/10/07 16:41:07;;;;;;;4.05;0.40;;;;;;;18.18;77.18;101307.41;5052557;28;20037;-71
2023/10/07 16:43:35;;;;;;;1.35;0.50;;;;;;;18.11;77.69;101311.72;5051193;28;21324;-71
2023/10/07 16:46:05;;;;;;;1.17;0.30;;;;;;;18.02;78.28;101322.47;5052168;28;20078;-72
2023/10/07 16:48:32;;;;;;;1.75;0.40;;;;;;;17.94;78.87;101333.91;5051020;28;20108;-72
2023/10/07 16:51:00;;;;;;;1.48;0.38;;;;;;;17.89;77.99;101338.88;5052597;28;20025;-72
2023/10/07 16:53:28;;;;;;;0.88;0.30;;;;;;;17.82;78.27;101337.91;5050772;28;20029;-72
2023/10/07 16:55:57;;;;;;;1.00;0.38;;;;;;;17.80;77.60;101345.97;5052090;28;20502;-72
2023/10/07 16:58:23;;;;;;;1.60;0.38;;;;;;;17.81;77.69;101350.25;5049816;28;20041;-72
2023/10/07 17:00:51;;;;;;;3.03;0.50;;;;;;;17.89;76.47;101350.22;5052700;28;20494;-72
2023/10/07 17:03:17;;;;;;;1.80;0.60;;;;;;;17.92;76.93;101353.53;5052895;28;20039;-72
2023/10/07 17:05:42;;;;;;;2.97;0.50;;;;;;;17.89;76.92;101347.59;5049236;28;21410;-71
2023/10/07 17:08:08;;;;;;;2.55;0.32;;;;;;;17.81;77.47;101345.00;5034314;28;20083;-71
2023/10/07 17:10:41;;;;;;;1.50;0.32;;;;;;;17.81;78.47;101346.81;5034862;28;20056;-71
2023/10/07 17:13:09;;;;;;;1.95;0.43;;;;;;;17.88;77.09;101353.84;5046574;28;20036;-72
2023/10/07 17:15:37;;;;;;;2.08;0.30;;;;;;;17.93;76.41;101356.00;5044660;28;20064;-71
2023/10/07 17:18:03;;;;;;;2.90;0.65;;;;;;;17.92;76.26;101354.34;5051994;28;20036;-72
2023/10/07 17:20:36;;;;;;;1.85;0.60;;;;;;;17.96;77.57;101360.88;5050731;28;20037;-71
2023/10/07 17:23:02;;;;;;;4.05;0.50;;;;;;;18.14;76.49;101356.19;5052148;28;20068;-71
2023/10/07 17:25:29;;;;;;;1.73;0.47;;;;;;;18.17;76.53;101357.69;5047749;28;20219;-71
2023/10/07 17:27:54;;;;;;;1.70;0.40;;;;;;;18.18;75.72;101359.31;5046371;28;20033;-71
2023/10/07 17:30:27;;;;;;;1.73;0.50;;;;;;;18.10;76.68;101364.63;5051424;28;20033;-71
2023/10/07 17:32:53;;;;;;;4.00;0.40;;;;;;;18.05;76.92;101359.88;5044810;28;20059;-71
2023/10/07 17:35:18;;;;;;;2.05;0.40;;;;;;;18.11;76.21;101361.81;5046404;28;20036;-71
2023/10/07 17:37:44;;;;;;;0.93;0.32;;;;;;;18.17;76.34;101362.94;5049878;28;20025;-71